Time;durP1;ratioP1;P1;durP2;ratioP2;P2;SDS_P1;SDS_P2;PMS_P1;PMS_P2;Temp;Humidity;BMP_temperature;BMP_pressure;BME280_temperature;BME280_humidity;BME280_pressure;Samples;Min_cycle;Max_cycle;Signal;HPM_P1;HPM_P2
2022/09/15 00:00:52;;;;;;;;;;;;;;;14.42;100.00;-25472.75;5055493;28;20317;-77
2022/09/15 00:03:22;;;;;;;;;;;;;;;14.41;100.00;-25472.31;5068977;28;19967;-79
2022/09/15 00:05:48;;;;;;;;;;;;;;;14.38;100.00;-25471.44;5074790;28;19920;-79
2022/09/15 00:08:13;;;;;;;;;;;;;;;14.39;100.00;-25471.72;5055291;28;20291;-80
2022/09/15 00:10:46;;;;;;;;;;;;;;;14.32;100.00;-25469.97;5092191;28;20411;-79
2022/09/15 00:13:13;;;;;;;;;;;;;;;14.29;100.00;-25468.97;5068535;28;19912;-79
2022/09/15 00:15:38;;;;;;;;;;;;;;;14.22;100.00;-25466.91;5073731;28;19935;-82
2022/09/15 00:18:05;;;;;;;;;;;;;;;14.21;100.00;-25466.78;5067459;28;19916;-82
2022/09/15 00:20:30;;;;;;;;;;;;;;;14.15;100.00;-25465.16;5079568;28;19923;-81
2022/09/15 00:22:56;;;;;;;;;;;;;;;14.08;100.00;-25463.13;5072233;28;19917;-81
2022/09/15 00:25:22;;;;;;;;;;;;;;;14.05;100.00;-25462.25;5052872;28;19920;-82
2022/09/15 00:27:47;;;;;;;;;;;;;;;14.05;100.00;-25462.09;5056246;28;19969;-81
2022/09/15 00:30:12;;;;;;;;;;;;;;;14.05;100.00;-25462.09;5069912;28;20446;-79
2022/09/15 00:32:39;;;;;;;;;;;;;;;14.07;100.00;-25462.69;5058441;28;19931;-78
2022/09/15 00:35:04;;;;;;;;;;;;;;;14.09;100.00;-25463.41;5069105;28;19928;-78
2022/09/15 00:37:29;;;;;;;;;;;;;;;14.09;100.00;-25463.28;5053844;28;19917;-77
2022/09/15 00:39:55;;;;;;;;;;;;;;;14.10;100.00;-25463.56;5058519;28;19926;-78
2022/09/15 00:42:22;;;;;;;;;;;;;;;14.14;100.00;-25464.72;5068089;28;19939;-76
2022/09/15 00:44:49;;;;;;;;;;;;;;;14.21;100.00;-25466.63;5057511;28;20019;-78
2022/09/15 00:47:15;;;;;;;;;;;;;;;14.25;100.00;-25467.78;5079548;28;20415;-79
2022/09/15 00:49:41;;;;;;;;;;;;;;;14.25;100.00;-25467.94;5056251;28;19917;-81
2022/09/15 00:52:17;;;;;;;;;;;;;;;14.23;100.00;-25467.34;5074955;28;19969;-74
2022/09/15 00:54:51;;;;;;;;;;;;;;;14.21;100.00;-25466.63;5075337;28;20023;-79
2022/09/15 00:57:41;;;;;;;;;;;;;;;14.13;100.00;-25464.44;5060988;28;19920;-79
2022/09/15 01:00:11;;;;;;;;;;;;;;;14.15;100.00;-25465.03;5077424;28;20015;-77
2022/09/15 01:02:38;;;;;;;;;;;;;;;14.14;100.00;-25464.72;5098863;28;19920;-81
2022/09/15 01:05:06;;;;;;;;;;;;;;;14.14;100.00;-25464.88;5098891;28;20388;-78
2022/09/15 01:07:37;;;;;;;;;;;;;;;14.17;100.00;-25465.75;5081477;28;19991;-77
2022/09/15 01:10:08;;;;;;;;;;;;;;;14.19;100.00;-25466.34;5081716;28;19923;-81
2022/09/15 01:12:34;;;;;;;;;;;;;;;14.25;100.00;-25467.94;5065995;28;19921;-80
2022/09/15 01:15:00;;;;;;;;;;;;;;;14.32;100.00;-25469.97;5061395;28;19921;-80
2022/09/15 01:17:49;;;;;;;;;;;;;;;14.38;100.00;-25471.44;5062940;28;19917;-80
2022/09/15 01:20:33;;;;;;;;;;;;;;;14.41;100.00;-25472.31;5078159;28;19916;-80
2022/09/15 01:23:28;;;;;;;;;;;;;;;14.42;100.00;-25472.75;5076960;28;19916;-80
2022/09/15 01:26:08;;;;;;;;;;;;;;;14.42;100.00;-25472.59;5061561;28;20289;-80
2022/09/15 01:28:46;;;;;;;;;;;;;;;14.44;100.00;-25473.34;5079001;28;19950;-80
2022/09/15 01:31:15;;;;;;;;;;;;;;;14.43;100.00;-25473.03;5067469;28;19942;-81
2022/09/15 01:33:59;;;;;;;;;;;;;;;14.46;100.00;-25473.75;5061773;28;19916;-80
2022/09/15 01:36:44;;;;;;;;;;;;;;;14.46;100.00;-25473.75;5042115;28;19921;-81
2022/09/15 01:39:15;;;;;;;;;;;;;;;14.42;100.00;-25472.59;5062147;28;19917;-81
2022/09/15 01:41:53;;;;;;;;;;;;;;;14.36;100.00;-25471.16;5075193;28;19920;-81
2022/09/15 01:44:21;;;;;;;;;;;;;;;14.28;100.00;-25468.81;5074823;28;20281;-80
2022/09/15 01:46:49;;;;;;;;;;;;;;;14.30;100.00;-25469.25;5062377;28;20050;-80
2022/09/15 01:49:17;;;;;;;;;;;;;;;14.27;100.00;-25468.53;5062386;28;19960;-80
2022/09/15 01:51:45;;;;;;;;;;;;;;;14.25;100.00;-25467.94;5077816;28;19920;-79
2022/09/15 01:54:11;;;;;;;;;;;;;;;14.27;100.00;-25468.53;5063699;28;19924;-79
2022/09/15 01:56:38;;;;;;;;;;;;;;;14.36;100.00;-25471.00;5062099;28;20027;-79
2022/09/15 01:59:03;;;;;;;;;;;;;;;14.45;100.00;-25473.63;5065921;28;19920;-77
2022/09/15 02:01:39;;;;;;;;;;;;;;;14.48;100.00;-25474.50;5069884;28;19946;-78
2022/09/15 02:04:10;;;;;;;;;;;;;;;14.61;100.00;-25478.00;5080555;28;19959;-77
2022/09/15 02:06:38;;;;;;;;;;;;;;;14.68;100.00;-25480.03;5085269;28;19984;-81
2022/09/15 02:09:11;;;;;;;;;;;;;;;14.77;100.00;-25482.50;5060867;28;20449;-75
2022/09/15 02:11:39;;;;;;;;;;;;;;;14.78;100.00;-25482.81;5059479;28;19983;-77
2022/09/15 02:14:17;;;;;;;;;;;;;;;14.80;100.00;-25483.53;5057634;28;19967;-78
2022/09/15 02:16:47;;;;;;;;;;;;;;;14.77;100.00;-25482.66;5058826;28;19927;-78
2022/09/15 02:19:30;;;;;;;;;;;;;;;14.73;100.00;-25481.50;5038850;28;20023;-80
2022/09/15 02:22:06;;;;;;;;;;;;;;;14.71;100.00;-25481.06;5042280;28;19927;-77
2022/09/15 02:24:36;;;;;;;;;;;;;;;14.68;100.00;-25480.19;5055534;28;19921;-78
2022/09/15 02:27:03;;;;;;;;;;;;;;;14.63;100.00;-25478.56;5075099;28;20016;-77
2022/09/15 02:29:32;;;;;;;;;;;;;;;14.59;100.00;-25477.56;5058081;28;19916;-78
2022/09/15 02:32:01;;;;;;;;;;;;;;;14.54;100.00;-25476.09;5075709;28;19924;-77
2022/09/15 02:34:33;;;;;;;;;;;;;;;14.50;100.00;-25475.06;5057816;28;20495;-76
2022/09/15 02:36:59;;;;;;;;;;;;;;;14.49;100.00;-25474.78;5058392;28;20015;-77
2022/09/15 02:39:31;;;;;;;;;;;;;;;14.46;100.00;-25473.75;5057042;28;19978;-76
2022/09/15 02:41:56;;;;;;;;;;;;;;;14.36;100.00;-25471.00;5058078;28;19916;-76
2022/09/15 02:44:22;;;;;;;;;;;;;;;14.32;100.00;-25469.84;5056533;28;19924;-76
2022/09/15 02:46:47;;;;;;;;;;;;;;;14.31;100.00;-25469.69;5075722;28;19928;-76
2022/09/15 02:49:13;;;;;;;;;;;;;;;14.24;100.00;-25467.50;5057129;28;20005;-77
2022/09/15 02:51:38;;;;;;;;;;;;;;;14.21;100.00;-25466.78;5057456;28;19932;-76
2022/09/15 02:54:05;;;;;;;;;;;;;;;14.16;100.00;-25465.31;5057479;28;20280;-76
2022/09/15 02:56:30;;;;;;;;;;;;;;;14.16;100.00;-25465.31;5056836;28;19966;-77
2022/09/15 02:58:56;;;;;;;;;;;;;;;14.15;100.00;-25465.03;5057591;28;19920;-78
2022/09/15 03:01:25;;;;;;;;;;;;;;;14.17;100.00;-25465.59;5059569;28;19986;-77
2022/09/15 03:03:51;;;;;;;;;;;;;;;14.18;100.00;-25465.91;5036959;28;19924;-75
2022/09/15 03:06:16;;;;;;;;;;;;;;;14.15;100.00;-25465.03;5028104;28;20016;-76
2022/09/15 03:09:01;;;;;;;;;;;;;;;14.09;100.00;-25463.41;5073469;28;19926;-77
2022/09/15 03:11:28;;;;;;;;;;;;;;;14.09;100.00;-25463.41;5054615;28;19947;-76
2022/09/15 03:13:56;;;;;;;;;;;;;;;14.08;100.00;-25463.13;5043496;28;20095;-74
2022/09/15 03:16:22;;;;;;;;;;;;;;;14.10;100.00;-25463.56;5036495;28;20019;-76
2022/09/15 03:18:47;;;;;;;;;;;;;;;14.09;100.00;-25463.28;5036049;28;20035;-77
2022/09/15 03:21:13;;;;;;;;;;;;;;;14.10;100.00;-25463.72;5070266;28;19917;-80
2022/09/15 03:23:39;;;;;;;;;;;;;;;14.09;100.00;-25463.28;5055119;28;19924;-78
2022/09/15 03:26:04;;;;;;;;;;;;;;;14.13;100.00;-25464.59;5071763;28;19921;-77
2022/09/15 03:28:30;;;;;;;;;;;;;;;14.16;100.00;-25465.31;5040122;28;20027;-76
2022/09/15 03:30:55;;;;;;;;;;;;;;;14.16;100.00;-25465.47;5046220;28;20441;-77
2022/09/15 03:33:21;;;;;;;;;;;;;;;14.17;100.00;-25465.75;5035480;28;20359;-77
2022/09/15 03:35:47;;;;;;;;;;;;;;;14.18;100.00;-25465.91;5035813;28;19947;-77
2022/09/15 03:38:13;;;;;;;;;;;;;;;14.26;100.00;-25468.22;5035794;28;19927;-78
2022/09/15 03:40:38;;;;;;;;;;;;;;;14.30;100.00;-25469.41;5035644;28;20011;-78
2022/09/15 03:43:04;;;;;;;;;;;;;;;14.28;100.00;-25468.66;5036192;28;19963;-78
2022/09/15 03:45:30;;;;;;;;;;;;;;;14.23;100.00;-25467.34;5035794;28;19963;-77
2022/09/15 03:47:55;;;;;;;;;;;;;;;14.21;100.00;-25466.78;5048253;28;19917;-78
2022/09/15 03:50:20;;;;;;;;;;;;;;;14.18;100.00;-25466.03;5055423;28;19916;-77
2022/09/15 03:52:47;;;;;;;;;;;;;;;14.16;100.00;-25465.47;5055208;28;19921;-77
2022/09/15 03:55:13;;;;;;;;;;;;;;;14.10;100.00;-25463.56;5055704;28;20011;-78
2022/09/15 03:57:38;;;;;;;;;;;;;;;14.08;100.00;-25462.97;5055328;28;19980;-79
2022/09/15 04:00:06;;;;;;;;;;;;;;;13.96;100.00;-25459.78;5055226;28;19920;-77
2022/09/15 04:02:33;;;;;;;;;;;;;;;13.97;100.00;-25459.91;5055363;28;19924;-80
2022/09/15 04:04:59;;;;;;;;;;;;;;;13.98;100.00;-25460.22;5055641;28;19924;-79
2022/09/15 04:07:24;;;;;;;;;;;;;;;14.02;100.00;-25461.22;5070224;28;19924;-78
2022/09/15 04:09:49;;;;;;;;;;;;;;;14.05;100.00;-25462.09;5075022;28;20003;-78
2022/09/15 04:12:15;;;;;;;;;;;;;;;14.08;100.00;-25462.97;5075194;28;19927;-79
2022/09/15 04:14:40;;;;;;;;;;;;;;;14.11;100.00;-25464.00;5075514;28;19920;-80
2022/09/15 04:17:06;;;;;;;;;;;;;;;14.15;100.00;-25465.16;5075545;28;20364;-78
2022/09/15 04:19:31;;;;;;;;;;;;;;;14.20;100.00;-25466.47;5093181;28;19916;-80
2022/09/15 04:21:56;;;;;;;;;;;;;;;14.22;100.00;-25467.06;5075540;28;19939;-80
2022/09/15 04:24:25;;;;;;;;;;;;;;;14.26;100.00;-25468.22;5075071;28;20311;-78
2022/09/15 04:26:50;;;;;;;;;;;;;;;14.25;100.00;-25467.94;5075660;28;20019;-80
2022/09/15 04:29:16;;;;;;;;;;;;;;;14.24;100.00;-25467.66;5074055;28;19963;-79
2022/09/15 04:31:41;;;;;;;;;;;;;;;14.27;100.00;-25468.38;5069108;28;20724;-79
2022/09/15 04:34:07;;;;;;;;;;;;;;;14.27;100.00;-25468.53;5092434;28;19916;-77
2022/09/15 04:36:32;;;;;;;;;;;;;;;14.27;100.00;-25468.38;5055844;28;19959;-77
2022/09/15 04:38:58;;;;;;;;;;;;;;;14.28;100.00;-25468.81;5072711;28;19921;-77
2022/09/15 04:41:26;;;;;;;;;;;;;;;14.32;100.00;-25469.84;5088041;28;20683;-77
2022/09/15 04:43:53;;;;;;;;;;;;;;;14.34;100.00;-25470.56;5054708;28;20392;-77
2022/09/15 04:46:19;;;;;;;;;;;;;;;14.32;100.00;-25469.84;5054525;28;19916;-77
2022/09/15 04:48:45;;;;;;;;;;;;;;;14.34;100.00;-25470.56;5054850;28;19924;-78
2022/09/15 04:51:11;;;;;;;;;;;;;;;14.35;100.00;-25470.84;5054438;28;19927;-77
2022/09/15 04:53:37;;;;;;;;;;;;;;;14.34;100.00;-25470.41;5062607;28;19916;-77
2022/09/15 04:56:06;;;;;;;;;;;;;;;14.37;100.00;-25471.28;5074860;28;19924;-78
2022/09/15 04:58:38;;;;;;;;;;;;;;;14.35;100.00;-25470.84;5075115;28;19916;-77
2022/09/15 05:01:08;;;;;;;;;;;;;;;14.36;100.00;-25471.16;5074670;28;20014;-77
2022/09/15 05:03:36;;;;;;;;;;;;;;;14.36;100.00;-25471.00;5074528;28;20006;-78
2022/09/15 05:06:02;;;;;;;;;;;;;;;14.37;100.00;-25471.28;5074492;28;19927;-79
2022/09/15 05:08:28;;;;;;;;;;;;;;;14.36;100.00;-25471.16;5074517;28;19951;-76
2022/09/15 05:10:57;;;;;;;;;;;;;;;14.37;100.00;-25471.28;5074497;28;19963;-77
2022/09/15 05:13:22;;;;;;;;;;;;;;;14.38;100.00;-25471.44;5092604;28;19985;-76
2022/09/15 05:15:48;;;;;;;;;;;;;;;14.38;100.00;-25471.44;5092487;28;19967;-77
2022/09/15 05:18:13;;;;;;;;;;;;;;;14.43;100.00;-25472.91;5073934;28;19970;-76
2022/09/15 05:20:38;;;;;;;;;;;;;;;14.42;100.00;-25472.59;5074588;28;19916;-78
2022/09/15 05:23:04;;;;;;;;;;;;;;;14.43;100.00;-25472.91;5073719;28;19927;-75
2022/09/15 05:25:30;;;;;;;;;;;;;;;14.44;100.00;-25473.19;5074088;28;19938;-76
2022/09/15 05:27:55;;;;;;;;;;;;;;;14.45;100.00;-25473.63;5074214;28;20604;-75
2022/09/15 05:30:20;;;;;;;;;;;;;;;14.43;100.00;-25472.91;5073994;28;19912;-76
2022/09/15 05:32:46;;;;;;;;;;;;;;;14.38;100.00;-25471.44;5073466;28;20657;-76
2022/09/15 05:35:12;;;;;;;;;;;;;;;14.39;100.00;-25471.72;5073655;28;19912;-78
2022/09/15 05:37:37;;;;;;;;;;;;;;;14.43;100.00;-25472.91;5073531;28;19927;-76
2022/09/15 05:40:02;;;;;;;;;;;;;;;14.40;100.00;-25472.16;5071670;28;19922;-76
2022/09/15 05:42:29;;;;;;;;;;;;;;;14.45;100.00;-25473.63;5073082;28;19916;-75
2022/09/15 05:44:54;;;;;;;;;;;;;;;14.47;100.00;-25474.06;5073752;28;19920;-75
2022/09/15 05:47:19;;;;;;;;;;;;;;;14.49;100.00;-25474.63;5074260;28;20386;-74
2022/09/15 05:49:45;;;;;;;;;;;;;;;14.51;100.00;-25475.22;5073083;28;20384;-77
2022/09/15 05:52:10;;;;;;;;;;;;;;;14.54;100.00;-25476.09;5056775;28;19982;-76
2022/09/15 05:54:35;;;;;;;;;;;;;;;14.60;100.00;-25477.69;5057344;28;19916;-75
2022/09/15 05:57:01;;;;;;;;;;;;;;;14.72;100.00;-25481.19;5075435;28;20449;-74
2022/09/15 05:59:27;;;;;;;;;;;;;;;14.85;100.00;-25484.84;5056568;28;20277;-76
2022/09/15 06:01:52;;;;;;;;;;;;;;;14.95;100.00;-25487.75;5058004;28;20422;-77
2022/09/15 06:04:18;;;;;;;;;;;;;;;15.02;100.00;-25489.78;5074762;28;19919;-76
2022/09/15 06:06:43;;;;;;;;;;;;;;;15.08;100.00;-25491.38;5054117;28;19925;-76
2022/09/15 06:09:09;;;;;;;;;;;;;;;15.07;100.00;-25491.25;5055951;28;19955;-75
2022/09/15 06:11:34;;;;;;;;;;;;;;;15.09;100.00;-25491.69;5069961;28;19917;-76
2022/09/15 06:14:04;;;;;;;;;;;;;;;15.16;100.00;-25493.72;5056555;28;20308;-76
2022/09/15 06:16:34;;;;;;;;;;;;;;;15.12;100.00;-25492.41;5041535;28;20286;-76
2022/09/15 06:19:02;;;;;;;;;;;;;;;15.17;100.00;-25494.00;5056629;28;19920;-75
2022/09/15 06:21:29;;;;;;;;;;;;;;;15.12;100.00;-25492.41;5055555;28;19950;-76
2022/09/15 06:24:02;;;;;;;;;;;;;;;15.03;100.00;-25488.16;5072473;28;19920;-77
2022/09/15 06:26:28;;;;;;;;;;;;;;;15.06;100.00;-25488.88;5076226;28;19923;-76
2022/09/15 06:28:57;;;;;;;;;;;;;;;15.10;100.00;-25489.91;5064423;28;19921;-76
2022/09/15 06:31:23;;;;;;;;;;;;;;;15.11;100.00;-25490.19;5055529;28;19916;-76
2022/09/15 06:33:50;;;;;;;;;;;;;;;15.10;100.00;-25490.03;5056566;28;19939;-76
2022/09/15 06:36:16;;;;;;;;;;;;;;;15.12;100.00;-25492.41;5064545;28;19920;-75
2022/09/15 06:38:42;;;;;;;;;;;;;;;15.13;100.00;-25492.84;5044747;28;19990;-78
2022/09/15 06:41:08;;;;;;;;;;;;;;;15.23;100.00;-25495.63;5037263;28;20580;-78
2022/09/15 06:43:33;;;;;;;;;;;;;;;15.27;100.00;-25496.78;5036977;28;19920;-78
2022/09/15 06:46:06;;;;;;;;;;;;;;;15.39;100.00;-25500.25;5054637;28;19916;-77
2022/09/15 06:48:34;;;;;;;;;;;;;;;15.48;100.00;-25502.59;5036654;28;19913;-75
2022/09/15 06:51:00;;;;;;;;;;;;;;;15.57;100.00;-25505.34;5036743;28;19927;-79
2022/09/15 06:53:29;;;;;;;;;;;;;;;15.65;100.00;-25507.53;5036656;28;20004;-77
2022/09/15 06:55:54;;;;;;;;;;;;;;;15.77;100.00;-25511.03;5034959;28;19920;-76
2022/09/15 06:58:20;;;;;;;;;;;;;;;15.89;100.00;-25514.38;5034757;28;19920;-77
2022/09/15 07:00:45;;;;;;;;;;;;;;;16.03;100.00;-25518.28;5049105;28;19935;-77
2022/09/15 07:03:11;;;;;;;;;;;;;;;16.13;100.00;-25521.06;5055663;28;20385;-78
2022/09/15 07:05:36;;;;;;;;;;;;;;;16.10;100.00;-25518.25;5055267;28;19927;-76
2022/09/15 07:08:01;;;;;;;;;;;;;;;16.25;100.00;-25193.16;5055688;28;19916;-77
2022/09/15 07:10:27;;;;;;;;;;;;;;;16.21;100.00;-22886.22;5054816;28;19943;-79
2022/09/15 07:12:52;;;;;;;;;;;;;;;16.26;100.00;-21898.59;5055733;28;19921;-77
2022/09/15 07:15:18;;;;;;;;;;;;;;;16.36;100.00;-20252.03;5055520;28;19916;-78
2022/09/15 07:17:43;;;;;;;;;;;;;;;16.47;100.00;-18274.50;5055973;28;19924;-77
2022/09/15 07:20:08;;;;;;;;;;;;;;;16.46;100.00;-15963.31;5074068;28;19916;-76
2022/09/15 07:22:37;;;;;;;;;;;;;;;16.62;100.00;-14974.34;5055355;28;19971;-78
2022/09/15 07:25:02;;;;;;;;;;;;;;;16.80;100.00;-12992.88;5055766;28;19998;-76
2022/09/15 07:27:30;;;;;;;;;;;;;;;16.54;100.00;-10014.56;5072236;28;19916;-78
2022/09/15 07:29:56;;;;;;;;;;;;;;;16.66;100.00;-3392.03;5055294;28;19916;-75
2022/09/15 07:32:22;;;;;;;;;;;;;;;16.71;100.00;-1734.06;5054730;28;19951;-79
2022/09/15 07:34:47;;;;;;;;;;;;;;;16.66;100.00;-1734.47;5055294;28;19974;-75
2022/09/15 07:37:13;;;;;;;;;;;;;;;16.39;100.00;-3062.50;5055625;28;19931;-78
2022/09/15 07:39:38;;;;;;;;;;;;;;;16.19;100.00;-3395.16;5056648;28;19947;-79
2022/09/15 07:42:03;;;;;;;;;;;;;;;15.93;100.00;-4720.84;5055241;28;19928;-79
2022/09/15 07:44:32;;;;;;;;;;;;;;;15.65;100.00;-12652.91;5072070;28;20022;-78
2022/09/15 07:46:57;;;;;;;;;;;;;;;15.46;100.00;-23526.31;5072347;28;20280;-78
2022/09/15 07:49:22;;;;;;;;;;;;;;;15.39;100.00;-25500.25;5056157;28;20016;-75
2022/09/15 07:51:49;;;;;;;;;;;;;;;15.45;100.00;-25501.88;5055559;28;19957;-78
2022/09/15 07:54:16;;;;;;;;;;;;;;;15.51;100.00;-25503.47;5055543;28;19917;-74
2022/09/15 07:56:41;;;;;;;;;;;;;;;15.63;100.00;-25506.97;5054018;28;19921;-76
2022/09/15 07:59:06;;;;;;;;;;;;;;;15.78;100.00;-25511.19;5052481;28;19974;-74
2022/09/15 08:01:32;;;;;;;;;;;;;;;15.90;100.00;-25514.53;5053817;28;19916;-75
2022/09/15 08:03:57;;;;;;;;;;;;;;;16.22;100.00;-25523.69;5052953;28;19917;-75
2022/09/15 08:06:24;;;;;;;;;;;;;;;16.41;100.00;-25528.91;5052799;28;19920;-76
2022/09/15 08:08:50;;;;;;;;;;;;;;;16.59;100.00;-25533.97;5053820;28;19916;-75
2022/09/15 08:11:19;;;;;;;;;;;;;;;16.69;100.00;-25537.03;5053654;28;19917;-77
2022/09/15 08:13:48;;;;;;;;;;;;;;;16.71;100.00;-25537.47;5053741;28;19920;-76
2022/09/15 08:16:15;;;;;;;;;;;;;;;16.65;100.00;-25535.72;5052838;28;19928;-75
2022/09/15 08:18:41;;;;;;;;;;;;;;;17.20;100.00;-25551.25;5053595;28;19924;-75
2022/09/15 08:21:08;;;;;;;;;;;;;;;18.29;100.00;-25581.97;5053301;28;19917;-74
2022/09/15 08:23:36;;;;;;;;;;;;;;;18.99;100.00;-25601.78;5053691;28;19939;-78
2022/09/15 08:26:04;;;;;;;;;;;;;;;19.21;100.00;-25607.69;5053364;28;19930;-75
2022/09/15 08:28:29;;;;;;;;;;;;;;;19.22;100.00;-18651.97;5052889;28;20364;-76
2022/09/15 08:30:58;;;;;;;;;;;;;;;19.54;100.00;-9693.34;5053218;28;19921;-76
2022/09/15 08:33:24;;;;;;;;;;;;;;;18.45;100.00;3606.13;5053222;28;20278;-76
2022/09/15 08:35:49;;;;;;;;;;;;;;;17.38;100.00;8243.84;5052931;28;19924;-76
2022/09/15 08:38:15;;;;;;;;;;;;;;;16.78;100.00;8561.16;5052727;28;20361;-75
2022/09/15 08:40:43;;;;;;;;;;;;;;;16.54;100.00;1912.72;5053073;28;19982;-75
2022/09/15 08:43:15;;;;;;;;;;;;;;;16.43;100.00;-3393.53;5052112;28;20495;-76
2022/09/15 08:45:45;;;;;;;;;;;;;;;16.50;100.00;-5049.47;5053510;28;19979;-77
2022/09/15 08:48:14;;;;;;;;;;;;;;;16.88;100.00;-5047.97;5053110;28;19916;-78
2022/09/15 08:50:43;;;;;;;;;;;;;;;17.24;100.00;5579.22;5053979;28;20024;-76
2022/09/15 08:53:16;;;;;;;;;;;;;;;17.70;100.00;9583.88;5052937;28;20407;-78
2022/09/15 08:55:51;;;;;;;;;;;;;;;18.45;100.00;25979.94;5053623;28;20313;-78
2022/09/15 08:58:18;;;;;;;;;;;;;;;18.28;100.00;48804.31;5053212;28;19983;-80
2022/09/15 09:00:45;;;;;;;;;;;;;;;18.16;100.00;56544.84;5053689;28;20269;-79
2022/09/15 09:03:11;;;;;;;;;;;;;;;17.68;100.00;68650.75;5052831;28;19917;-80
2022/09/15 09:06:06;;;;;;;;;;;;;;;17.78;100.00;65282.22;5053656;28;20247;-79
2022/09/15 09:08:47;;;;;;;;;;;;;;;18.15;100.00;80907.31;5040625;28;19917;-79
2022/09/15 09:11:22;;;;;;;;;;;;;;;18.09;100.00;93476.22;5053499;28;19960;-78
2022/09/15 09:14:07;;;;;;;;;;;;;;;17.87;100.00;135174.59;5052501;28;19917;-76
2022/09/15 09:16:58;;;;;;;;;;;;;;;17.95;100.00;147242.56;5052449;28;19916;-76
2022/09/15 09:19:36;;;;;;;;;;;;;;;17.80;100.00;147205.41;5053705;28;20368;-75
2022/09/15 09:22:06;;;;;;;;;;;;;;;17.93;100.00;147237.47;5053419;28;20284;-76
2022/09/15 09:24:37;;;;;;;;;;;;;;;17.88;100.00;147225.97;5056888;28;19936;-76
2022/09/15 09:27:03;;;;;;;;;;;;;;;17.90;100.00;147231.06;5056659;28;19917;-77
2022/09/15 09:29:32;;;;;;;;;;;;;;;18.08;100.00;147274.53;5056748;28;20031;-79
2022/09/15 09:31:58;;;;;;;;;;;;;;;18.05;100.00;147268.16;5056615;28;20360;-76
2022/09/15 09:34:44;;;;;;;;;;;;;;;18.30;100.00;147330.84;5056549;28;19920;-75
2022/09/15 09:37:11;;;;;;;;;;;;;;;18.66;100.00;147420.38;5056660;28;19974;-78
2022/09/15 09:39:37;;;;;;;;;;;;;;;18.69;100.00;147425.47;5057280;28;20012;-78
2022/09/15 09:42:02;;;;;;;;;;;;;;;18.78;100.00;147448.53;5056769;28;19971;-79
2022/09/15 09:44:31;;;;;;;;;;;;;;;18.73;100.00;147437.00;5056818;28;19920;-78
2022/09/15 09:46:58;;;;;;;;;;;;;;;18.61;100.00;147407.59;5057782;28;19921;-78
2022/09/15 09:49:23;;;;;;;;;;;;;;;18.44;100.00;147365.38;5056834;28;20319;-77
2022/09/15 09:51:53;;;;;;;;;;;;;;;18.43;100.00;147362.81;5056841;28;20007;-77
2022/09/15 09:54:20;;;;;;;;;;;;;;;18.68;100.00;147422.97;5074421;28;19916;-77
2022/09/15 09:56:48;;;;;;;;;;;;;;;18.94;100.00;147488.22;5056995;28;20269;-76
2022/09/15 09:59:33;;;;;;;;;;;;;;;19.27;100.00;147570.19;5073573;28;19917;-77
2022/09/15 10:02:05;;;;;;;;;;;;;;;19.38;100.00;147599.59;5056679;28;19961;-77
2022/09/15 10:04:30;;;;;;;;;;;;;;;19.71;100.00;147681.53;5056652;28;19999;-76
2022/09/15 10:06:56;;;;;;;;;;;;;;;19.76;100.00;147693.06;5072885;28;19944;-77
2022/09/15 10:09:21;;;;;;;;;;;;;;;19.70;100.00;147677.69;5073895;28;19964;-77
2022/09/15 10:11:51;;;;;;;;;;;;;;;19.97;100.00;147744.38;5056059;28;20011;-73
2022/09/15 10:14:37;;;;;;;;;;;;;;;19.82;100.00;147707.19;5055623;28;19924;-79
2022/09/15 10:17:17;;;;;;;;;;;;;;;19.86;100.00;147717.47;5057698;28;20250;-78
2022/09/15 10:19:47;;;;;;;;;;;;;;;19.94;100.00;147736.69;5074975;28;19962;-77
2022/09/15 10:22:32;;;;;;;;;;;;;;;19.53;100.00;147635.47;5073680;28;19919;-77
2022/09/15 10:24:59;;;;;;;;;;;;;;;19.38;100.00;147599.59;5056304;28;20254;-79
2022/09/15 10:27:30;;;;;;;;;;;;;;;19.42;100.00;147608.59;5056940;28;20011;-77
2022/09/15 10:29:58;;;;;;;;;;;;;;;19.52;100.00;147634.16;5056594;28;20459;-77
2022/09/15 10:32:27;;;;;;;;;;;;;;;19.44;100.00;147612.44;5056271;28;19968;-78
2022/09/15 10:35:18;;;;;;;;;;;;;;;19.40;100.00;147602.16;5055128;28;20234;-77
2022/09/15 10:37:46;;;;;;;;;;;;;;;19.41;100.00;147604.75;5053623;28;20395;-79
2022/09/15 10:40:35;;;;;;;;;;;;;;;19.59;100.00;147650.78;5055499;28;19920;-75
2022/09/15 10:43:10;;;;;;;;;;;;;;;19.87;100.00;147720.00;5055923;28;20449;-78
2022/09/15 10:45:42;;;;;;;;;;;;;;;20.00;100.00;147752.03;5062121;28;19999;-78
2022/09/15 10:48:16;;;;;;;;;;;;;;;20.05;100.00;147766.09;5075960;28;19916;-78
2022/09/15 10:50:41;;;;;;;;;;;;;;;19.77;100.00;147694.41;5057850;28;19924;-77
2022/09/15 10:53:09;;;;;;;;;;;;;;;19.80;100.00;147702.09;5055663;28;20388;-77
2022/09/15 10:55:40;;;;;;;;;;;;;;;19.92;100.00;147732.84;5056196;28;19920;-77
2022/09/15 10:58:24;;;;;;;;;;;;;;;19.98;100.00;147748.19;5064329;28;19970;-76
2022/09/15 11:00:53;;;;;;;;;;;;;;;19.71;100.00;147680.25;5092450;28;19917;-77
2022/09/15 11:03:19;;;;;;;;;;;;;;;19.65;100.00;147666.16;5074733;28;20019;-78
2022/09/15 11:05:52;;;;;;;;;;;;;;;19.50;100.00;147627.78;5056038;28;19933;-78
2022/09/15 11:08:36;;;;;;;;;;;;;;;19.74;100.00;147689.22;5056181;28;19917;-78
2022/09/15 11:11:19;;;;;;;;;;;;;;;19.97;100.00;147744.38;5056740;28;19921;-76
2022/09/15 11:13:57;;;;;;;;;;;;;;;19.67;100.00;147671.31;5050007;28;20395;-77
2022/09/15 11:16:32;;;;;;;;;;;;;;;19.85;100.00;147716.16;5050004;28;20009;-78
2022/09/15 11:19:03;;;;;;;;;;;;;;;19.62;100.00;147658.47;5052437;28;19943;-77
2022/09/15 11:21:38;;;;;;;;;;;;;;;19.44;100.00;147612.44;5055306;28;20030;-77
2022/09/15 11:24:22;;;;;;;;;;;;;;;19.43;100.00;147609.84;5055769;28;20415;-81
2022/09/15 11:26:51;;;;;;;;;;;;;;;19.23;100.00;147561.19;5073915;28;19917;-78
2022/09/15 11:29:38;;;;;;;;;;;;;;;19.18;100.00;147549.66;5055742;28;19912;-76
2022/09/15 11:32:06;;;;;;;;;;;;;;;19.26;100.00;147568.88;5056847;28;19977;-77
2022/09/15 11:34:38;;;;;;;;;;;;;;;19.23;100.00;147561.19;5056070;28;19971;-78
2022/09/15 11:37:24;;;;;;;;;;;;;;;19.06;100.00;147517.69;5055425;28;19935;-78
2022/09/15 11:39:58;;;;;;;;;;;;;;;18.82;100.00;147458.78;5055080;28;20373;-77
2022/09/15 11:42:44;;;;;;;;;;;;;;;18.96;100.00;147494.63;5055093;28;19916;-80
2022/09/15 11:45:33;;;;;;;;;;;;;;;19.13;100.00;147535.63;5055253;28;19921;-80
2022/09/15 11:48:03;;;;;;;;;;;;;;;19.15;100.00;147540.72;5054921;28;19970;-77
2022/09/15 11:50:31;;;;;;;;;;;;;;;19.34;100.00;147589.38;5054716;28;19924;-78
2022/09/15 11:53:00;;;;;;;;;;;;;;;19.05;100.00;147515.09;5067911;28;19920;-78
2022/09/15 11:55:38;;;;;;;;;;;;;;;19.05;100.00;147515.09;5075064;28;19965;-77
2022/09/15 11:58:19;;;;;;;;;;;;;;;19.12;100.00;147534.31;5075428;28;20364;-78
2022/09/15 12:01:03;;;;;;;;;;;;;;;18.95;100.00;147490.78;5075655;28;20493;-80
2022/09/15 12:03:48;;;;;;;;;;;;;;;18.88;100.00;147474.19;5071181;28;19924;-79
2022/09/15 12:06:17;;;;;;;;;;;;;;;18.81;100.00;147456.19;5069165;28;19925;-80
2022/09/15 12:09:02;;;;;;;;;;;;;;;18.98;100.00;147498.47;5059882;28;20338;-81
2022/09/15 12:11:29;;;;;;;;;;;;;;;19.02;100.00;147508.72;5055620;28;19970;-80
2022/09/15 12:13:58;;;;;;;;;;;;;;;19.17;100.00;147547.13;5055901;28;20584;-80
2022/09/15 12:16:25;;;;;;;;;;;;;;;19.35;100.00;147590.66;5057241;28;19924;-79
2022/09/15 12:18:51;;;;;;;;;;;;;;;19.24;100.00;147562.50;5075100;28;20006;-78
2022/09/15 12:21:33;;;;;;;;;;;;;;;18.93;100.00;147486.97;5071504;28;19951;-79
2022/09/15 12:24:06;;;;;;;;;;;;;;;18.79;100.00;147452.34;5051947;28;19928;-79
2022/09/15 12:26:35;;;;;;;;;;;;;;;18.89;100.00;147476.72;5062742;28;19916;-76
2022/09/15 12:29:20;;;;;;;;;;;;;;;19.25;100.00;147566.34;5055112;28;19917;-81
2022/09/15 12:31:45;;;;;;;;;;;;;;;19.37;100.00;147595.75;5054024;28;19984;-80
2022/09/15 12:34:23;;;;;;;;;;;;;;;19.17;100.00;147545.81;5085882;28;20389;-79
2022/09/15 12:36:51;;;;;;;;;;;;;;;18.92;100.00;147484.38;5042531;28;20011;-78
2022/09/15 12:39:35;;;;;;;;;;;;;;;19.20;100.00;147553.50;5071615;28;19978;-80